createdAt,value
2024-02-13T00:01:42.787Z,11.95
2024-02-13T00:04:11.329Z,10.32
2024-02-13T00:06:38.424Z,8.30
2024-02-13T00:09:05.575Z,11.60
2024-02-13T00:11:32.195Z,9.77
2024-02-13T00:13:58.653Z,9.75
2024-02-13T00:16:25.580Z,18.25
2024-02-13T00:18:52.235Z,11.88
2024-02-13T00:21:18.824Z,12.35
2024-02-13T00:23:45.562Z,14.32
2024-02-13T00:26:12.146Z,11.48
2024-02-13T00:28:39.186Z,10.43
2024-02-13T00:31:06.099Z,14.60
2024-02-13T00:33:32.966Z,18.30
2024-02-13T00:35:59.473Z,15.20
2024-02-13T00:38:26.735Z,13.25
2024-02-13T00:40:53.194Z,13.77
2024-02-13T00:43:21.148Z,17.67
2024-02-13T00:45:48.105Z,16.67
2024-02-13T00:48:14.764Z,15.48
2024-02-13T00:50:41.480Z,15.60
2024-02-13T00:53:07.998Z,13.43
2024-02-13T00:55:34.410Z,19.90
2024-02-13T00:58:01.314Z,14.85
2024-02-13T01:00:28.162Z,15.32
2024-02-13T01:02:56.732Z,12.90
2024-02-13T01:05:23.445Z,19.65
2024-02-13T01:07:49.898Z,13.70
2024-02-13T01:10:17.072Z,13.10
2024-02-13T01:12:43.491Z,13.55
2024-02-13T01:15:10.221Z,15.88
2024-02-13T01:17:36.789Z,15.77
2024-02-13T01:20:05.105Z,13.48
2024-02-13T01:22:31.656Z,14.48
2024-02-13T01:24:58.243Z,14.80
2024-02-13T01:27:26.193Z,17.15
2024-02-13T01:29:52.944Z,17.02
2024-02-13T01:32:19.570Z,14.60
2024-02-13T01:34:46.109Z,17.08
2024-02-13T01:37:12.780Z,15.25
2024-02-13T01:39:39.849Z,16.60
2024-02-13T01:42:06.262Z,15.40
2024-02-13T01:44:33.965Z,18.20
2024-02-13T01:47:00.562Z,15.70
2024-02-13T01:49:29.495Z,16.33
2024-02-13T01:51:57.780Z,15.70
2024-02-13T01:54:27.115Z,17.20
2024-02-13T01:56:54.478Z,25.35
2024-02-13T01:59:23.547Z,18.55
2024-02-13T02:01:50.424Z,24.95
2024-02-13T02:04:17.110Z,24.83
2024-02-13T02:06:43.789Z,31.90
2024-02-13T02:09:10.255Z,22.15
2024-02-13T02:11:36.847Z,23.00
2024-02-13T02:14:03.357Z,19.08
2024-02-13T02:16:29.867Z,18.08
2024-02-13T02:18:56.952Z,17.73
2024-02-13T02:21:23.577Z,19.88
2024-02-13T02:23:50.056Z,23.23
2024-02-13T02:26:16.471Z,19.05
2024-02-13T02:28:44.437Z,19.70
2024-02-13T02:31:15.833Z,19.13
2024-02-13T02:33:45.046Z,21.63
2024-02-13T02:36:12.125Z,23.85
2024-02-13T02:38:39.630Z,18.48
2024-02-13T02:41:08.313Z,21.75
2024-02-13T02:43:38.400Z,19.60
2024-02-13T02:46:05.955Z,19.73
2024-02-13T02:48:32.532Z,23.73
2024-02-13T02:50:59.810Z,17.23
2024-02-13T02:53:26.340Z,22.05
2024-02-13T02:55:54.361Z,19.92
2024-02-13T03:00:47.867Z,20.63
2024-02-13T03:03:14.304Z,17.95
2024-02-13T03:05:41.933Z,19.33
2024-02-13T03:08:09.621Z,18.30
2024-02-13T03:10:36.304Z,20.58
2024-02-13T03:13:03.577Z,25.73
2024-02-13T03:15:30.168Z,23.33
2024-02-13T03:17:56.758Z,23.30
2024-02-13T03:20:23.282Z,29.77
2024-02-13T03:22:50.169Z,21.55
2024-02-13T03:25:16.743Z,15.60
2024-02-13T03:27:43.184Z,23.38
2024-02-13T03:30:11.335Z,19.73
2024-02-13T03:32:37.959Z,18.08
2024-02-13T03:35:04.770Z,18.50
2024-02-13T03:37:31.702Z,25.38
2024-02-13T03:39:58.215Z,23.20
2024-02-13T03:42:24.624Z,15.88
2024-02-13T03:44:51.092Z,24.15
2024-02-13T03:47:17.563Z,23.95
2024-02-13T03:49:44.097Z,20.83
2024-02-13T03:52:10.957Z,20.20
2024-02-13T03:54:37.744Z,22.35
2024-02-13T03:57:05.110Z,17.92
2024-02-13T03:59:31.652Z,20.83
2024-02-13T04:01:59.987Z,17.55
2024-02-13T04:04:26.591Z,18.65
2024-02-13T04:06:53.509Z,19.00
2024-02-13T04:09:20.123Z,25.80
2024-02-13T04:11:47.407Z,21.15
2024-02-13T04:14:14.321Z,19.75
2024-02-13T04:16:42.338Z,17.65
2024-02-13T04:19:08.862Z,21.50
2024-02-13T04:21:36.072Z,21.75
2024-02-13T04:24:04.018Z,21.35
2024-02-13T04:29:04.821Z,21.00
2024-02-13T04:31:31.344Z,20.20
2024-02-13T04:33:58.002Z,19.60
2024-02-13T04:36:25.056Z,19.50
2024-02-13T04:38:51.730Z,17.85
2024-02-13T04:41:19.469Z,19.33
2024-02-13T04:43:46.277Z,15.55
2024-02-13T04:46:12.783Z,17.20
2024-02-13T04:48:39.775Z,16.90
2024-02-13T04:51:06.447Z,19.65
2024-02-13T04:53:33.915Z,18.13
2024-02-13T04:56:00.604Z,16.75
2024-02-13T04:58:31.944Z,22.70
2024-02-13T05:01:06.792Z,21.13
2024-02-13T05:03:49.460Z,19.92
2024-02-13T05:06:35.283Z,20.83
2024-02-13T05:09:01.736Z,19.92
2024-02-13T05:11:28.419Z,19.08
2024-02-13T05:13:57.510Z,22.58
2024-02-13T05:16:26.854Z,19.05
2024-02-13T05:18:53.656Z,20.10
2024-02-13T05:21:21.915Z,18.30
2024-02-13T05:23:49.069Z,19.65
2024-02-13T05:26:16.417Z,19.38
2024-02-13T05:28:43.692Z,17.50
2024-02-13T05:31:10.259Z,20.02
2024-02-13T05:33:37.528Z,23.65
2024-02-13T05:36:05.256Z,20.15
2024-02-13T05:38:45.598Z,23.48
2024-02-13T05:41:12.928Z,18.08
2024-02-13T05:43:41.918Z,20.38
2024-02-13T05:46:08.716Z,32.75
2024-02-13T05:48:37.353Z,20.73
2024-02-13T05:51:05.778Z,14.13
2024-02-13T05:53:32.905Z,21.08
2024-02-13T05:56:01.118Z,17.13
2024-02-13T05:58:29.839Z,15.25
2024-02-13T06:00:57.852Z,24.02
2024-02-13T06:03:25.721Z,17.73
2024-02-13T06:05:56.419Z,17.63
2024-02-13T06:08:24.012Z,19.75
2024-02-13T06:10:50.738Z,20.33
2024-02-13T06:13:17.274Z,12.48
2024-02-13T06:15:44.015Z,17.88
2024-02-13T06:18:10.613Z,16.05
2024-02-13T06:20:37.328Z,19.13
2024-02-13T06:23:04.155Z,18.50
2024-02-13T06:25:31.305Z,17.00
2024-02-13T06:27:57.905Z,17.48
2024-02-13T06:30:24.325Z,17.67
2024-02-13T06:32:51.983Z,13.40
2024-02-13T06:35:18.782Z,16.58
2024-02-13T06:37:45.392Z,16.77
2024-02-13T06:40:12.556Z,17.08
2024-02-13T06:42:39.039Z,17.45
2024-02-13T06:45:06.774Z,18.95
2024-02-13T06:47:33.273Z,17.80
2024-02-13T06:50:01.638Z,16.13
2024-02-13T06:52:28.587Z,16.38
2024-02-13T06:54:55.057Z,23.00
2024-02-13T06:57:21.600Z,20.20
2024-02-13T06:59:48.116Z,16.40
2024-02-13T07:02:15.340Z,12.93
2024-02-13T07:04:41.737Z,16.30
2024-02-13T07:07:19.447Z,20.80
2024-02-13T07:09:54.873Z,13.90
2024-02-13T07:12:21.627Z,19.35
2024-02-13T07:14:48.573Z,22.60
2024-02-13T07:17:15.149Z,17.23
2024-02-13T07:19:42.434Z,20.60
2024-02-13T07:22:09.466Z,15.13
2024-02-13T07:24:39.894Z,15.80
2024-02-13T07:27:07.042Z,12.45
2024-02-13T07:29:33.601Z,18.77
2024-02-13T07:32:03.263Z,20.08
2024-02-13T07:34:29.959Z,13.98
2024-02-13T07:36:56.684Z,14.25
2024-02-13T07:39:23.156Z,20.90
2024-02-13T07:41:50.872Z,14.95
2024-02-13T07:44:17.390Z,12.57
2024-02-13T07:46:44.499Z,13.88
2024-02-13T07:49:11.902Z,15.90
2024-02-13T07:51:38.772Z,19.65
2024-02-13T07:54:05.595Z,15.23
2024-02-13T07:56:32.209Z,16.38
2024-02-13T07:58:59.566Z,17.02
2024-02-13T08:01:26.745Z,23.20
2024-02-13T08:03:53.728Z,11.57
2024-02-13T08:06:20.510Z,15.75
2024-02-13T08:08:47.951Z,18.75
2024-02-13T08:11:14.546Z,12.27
2024-02-13T08:13:40.987Z,12.68
2024-02-13T08:16:08.095Z,11.23
2024-02-13T08:18:35.984Z,16.85
2024-02-13T08:21:03.190Z,10.93
2024-02-13T08:23:30.433Z,12.70
2024-02-13T08:25:57.040Z,11.27
2024-02-13T08:28:23.771Z,13.10
2024-02-13T08:30:50.189Z,12.48
2024-02-13T08:33:20.827Z,13.82
2024-02-13T08:35:47.823Z,11.07
2024-02-13T08:38:14.652Z,11.35
2024-02-13T08:40:42.262Z,8.27
2024-02-13T08:43:08.754Z,7.45
2024-02-13T08:45:35.362Z,9.02
2024-02-13T08:48:02.034Z,14.63
2024-02-13T08:50:29.064Z,9.77
2024-02-13T08:52:55.605Z,12.43
2024-02-13T08:55:22.414Z,10.43
2024-02-13T08:57:48.873Z,7.47
2024-02-13T09:00:17.282Z,8.15
2024-02-13T09:02:44.084Z,8.15
2024-02-13T09:05:10.861Z,7.70
2024-02-13T09:07:39.293Z,10.98
2024-02-13T09:10:06.672Z,13.73
2024-02-13T09:12:34.564Z,12.52
2024-02-13T09:15:01.186Z,11.02
2024-02-13T09:17:27.756Z,9.02
2024-02-13T09:19:54.260Z,9.98
2024-02-13T09:22:20.786Z,9.63
2024-02-13T09:24:52.408Z,9.57
2024-02-13T09:27:19.983Z,8.63
2024-02-13T09:29:47.397Z,12.82
2024-02-13T09:34:40.405Z,13.52
2024-02-13T09:37:10.858Z,9.07
2024-02-13T09:39:37.359Z,9.07
2024-02-13T09:42:04.592Z,9.00
2024-02-13T09:44:31.573Z,11.15
2024-02-13T09:46:58.163Z,9.43
2024-02-13T09:49:25.119Z,9.75
2024-02-13T09:51:54.548Z,8.35
2024-02-13T09:54:24.518Z,8.23
2024-02-13T09:56:52.307Z,9.93
2024-02-13T09:59:22.898Z,11.75
2024-02-13T10:01:50.512Z,8.30
2024-02-13T10:06:43.450Z,9.43
2024-02-13T10:09:12.906Z,7.78
2024-02-13T10:11:39.999Z,11.90
2024-02-13T10:14:17.179Z,9.32
2024-02-13T10:16:43.920Z,8.65
2024-02-13T10:19:14.471Z,10.02
2024-02-13T10:21:43.032Z,9.90
2024-02-13T10:24:15.091Z,9.82
2024-02-13T10:26:45.352Z,8.60
2024-02-13T10:29:13.556Z,7.30
2024-02-13T10:31:42.791Z,10.40
2024-02-13T10:34:12.735Z,7.28
2024-02-13T10:36:44.255Z,9.70
2024-02-13T10:39:13.217Z,8.65
2024-02-13T10:41:42.082Z,8.60
2024-02-13T10:44:14.514Z,7.15
2024-02-13T10:46:43.240Z,7.05
2024-02-13T10:49:19.538Z,10.55
2024-02-13T10:51:46.537Z,11.60
2024-02-13T10:54:16.728Z,8.95
2024-02-13T10:56:43.811Z,7.05
2024-02-13T10:59:11.686Z,14.38
2024-02-13T11:01:41.278Z,6.18
2024-02-13T11:04:08.679Z,11.40
2024-02-13T11:06:35.421Z,8.93
2024-02-13T11:09:02.786Z,10.75
2024-02-13T11:13:55.928Z,7.10
2024-02-13T11:16:23.417Z,10.15
2024-02-13T11:18:52.142Z,7.65
2024-02-13T11:21:25.213Z,7.35
2024-02-13T11:24:03.232Z,7.75
2024-02-13T11:26:34.239Z,8.30
2024-02-13T11:29:11.176Z,6.82
2024-02-13T11:31:40.434Z,5.90
2024-02-13T11:34:11.787Z,7.82
2024-02-13T11:36:38.780Z,8.93
2024-02-13T11:39:07.768Z,6.15
2024-02-13T11:41:35.443Z,6.63
2024-02-13T11:44:09.946Z,9.10
2024-02-13T11:46:41.781Z,6.53
2024-02-13T11:49:10.699Z,8.60
2024-02-13T11:51:40.567Z,8.38
2024-02-13T11:54:07.831Z,4.88
2024-02-13T11:56:36.743Z,8.57
2024-02-13T11:59:07.560Z,7.05
2024-02-13T12:01:37.890Z,5.78
2024-02-13T12:04:05.710Z,7.22
2024-02-13T12:06:32.722Z,5.97
2024-02-13T12:09:01.241Z,6.22
2024-02-13T12:11:30.075Z,6.95
2024-02-13T12:13:58.318Z,7.90
2024-02-13T12:16:25.045Z,6.95
2024-02-13T12:18:51.816Z,5.82
2024-02-13T12:21:18.422Z,8.70
2024-02-13T12:23:51.417Z,4.65
2024-02-13T12:26:18.718Z,7.43
2024-02-13T12:28:57.016Z,6.97
2024-02-13T12:31:24.126Z,9.82
2024-02-13T12:34:14.830Z,6.00
2024-02-13T12:36:41.475Z,8.68
2024-02-13T12:39:22.184Z,7.07
2024-02-13T12:41:50.262Z,6.88
2024-02-13T12:44:18.214Z,8.15
2024-02-13T12:46:46.769Z,9.75
2024-02-13T12:49:14.150Z,7.35
2024-02-13T12:51:41.012Z,10.02
2024-02-13T12:54:08.426Z,7.72
2024-02-13T12:59:04.543Z,6.18
2024-02-13T13:01:32.622Z,9.82
2024-02-13T13:03:59.782Z,10.13
2024-02-13T13:06:28.544Z,8.77
2024-02-13T13:08:58.008Z,9.02
2024-02-13T13:11:24.982Z,9.10
2024-02-13T13:13:51.701Z,4.78
2024-02-13T13:16:18.126Z,8.93
2024-02-13T13:18:46.150Z,11.15
2024-02-13T13:21:14.991Z,8.63
2024-02-13T13:23:42.759Z,6.30
2024-02-13T13:26:10.224Z,7.95
2024-02-13T13:28:39.047Z,6.75
2024-02-13T13:31:05.929Z,7.45
2024-02-13T13:33:35.151Z,5.90
2024-02-13T13:36:02.177Z,14.98
2024-02-13T13:38:30.223Z,7.20
2024-02-13T13:41:02.279Z,11.00
2024-02-13T13:43:31.778Z,7.53
2024-02-13T13:45:59.111Z,5.53
2024-02-13T13:48:28.632Z,8.13
2024-02-13T13:50:55.516Z,8.88
2024-02-13T13:53:24.257Z,8.57
2024-02-13T13:55:51.008Z,5.88
2024-02-13T13:58:17.582Z,8.25
2024-02-13T14:00:44.636Z,9.13
2024-02-13T14:03:12.691Z,8.90
2024-02-13T14:05:40.692Z,11.90
2024-02-13T14:08:09.010Z,7.88
2024-02-13T14:10:35.524Z,6.95
2024-02-13T14:13:03.441Z,9.20
2024-02-13T14:15:30.384Z,9.38
2024-02-13T14:17:59.424Z,8.05
2024-02-13T14:20:26.787Z,7.43
2024-02-13T14:22:57.848Z,9.18
2024-02-13T14:25:27.251Z,6.65
2024-02-13T14:27:54.799Z,5.50
2024-02-13T14:30:22.220Z,9.25
2024-02-13T14:32:49.439Z,5.85
2024-02-13T14:35:19.128Z,7.10
2024-02-13T14:37:48.859Z,6.43
2024-02-13T14:40:16.472Z,5.82
2024-02-13T14:42:46.174Z,6.13
2024-02-13T14:45:12.922Z,8.18
2024-02-13T14:47:40.222Z,4.03
2024-02-13T14:50:08.583Z,4.18
2024-02-13T14:52:37.988Z,6.50
2024-02-13T14:55:05.125Z,4.55
2024-02-13T14:57:35.101Z,7.60
2024-02-13T15:00:07.122Z,4.40
2024-02-13T15:02:36.747Z,5.10
2024-02-13T15:05:04.369Z,9.13
2024-02-13T15:07:31.375Z,3.95
2024-02-13T15:09:59.022Z,4.82
2024-02-13T15:14:52.065Z,5.07
2024-02-13T15:17:20.775Z,4.63
2024-02-13T15:19:48.050Z,6.55
2024-02-13T15:22:18.923Z,4.63
2024-02-13T15:24:48.575Z,6.15
2024-02-13T15:27:15.099Z,4.97
2024-02-13T15:29:43.701Z,6.00
2024-02-13T15:32:10.434Z,4.75
2024-02-13T15:34:42.520Z,5.70
2024-02-13T15:37:09.035Z,5.60
2024-02-13T15:39:54.155Z,8.90
2024-02-13T15:42:35.072Z,6.13
2024-02-13T15:45:19.929Z,4.88
2024-02-13T15:47:46.518Z,4.78
2024-02-13T15:50:13.404Z,7.88
2024-02-13T15:52:40.392Z,4.57
2024-02-13T15:55:12.061Z,6.75
2024-02-13T15:57:44.312Z,7.00
2024-02-13T16:00:16.057Z,7.45
2024-02-13T16:02:44.687Z,4.80
2024-02-13T16:05:18.112Z,4.78
2024-02-13T16:07:45.250Z,4.70
2024-02-13T16:10:16.187Z,3.85
2024-02-13T16:12:44.339Z,5.28
2024-02-13T16:15:13.300Z,6.07
2024-02-13T16:17:40.842Z,7.85
2024-02-13T16:20:09.305Z,7.40
2024-02-13T16:22:37.341Z,7.63
2024-02-13T16:25:07.261Z,6.50
2024-02-13T16:27:34.912Z,5.80
2024-02-13T16:32:35.905Z,5.38
2024-02-13T16:35:09.334Z,8.23
2024-02-13T16:37:35.979Z,7.05
2024-02-13T16:40:06.613Z,7.40
2024-02-13T16:42:34.062Z,6.85
2024-02-13T16:45:00.691Z,4.75
2024-02-13T16:47:27.389Z,9.25
2024-02-13T16:49:58.908Z,6.38
2024-02-13T16:52:27.812Z,6.75
2024-02-13T16:54:56.984Z,4.70
2024-02-13T16:57:23.397Z,6.47
2024-02-13T16:59:51.280Z,9.02
2024-02-13T17:02:17.707Z,6.60
2024-02-13T17:04:45.858Z,8.32
2024-02-13T17:07:12.463Z,6.95
2024-02-13T17:09:39.159Z,6.63
2024-02-13T17:12:05.990Z,9.77
2024-02-13T17:14:32.722Z,7.28
2024-02-13T17:16:59.341Z,7.10
2024-02-13T17:19:25.996Z,6.13
2024-02-13T17:21:52.757Z,5.57
2024-02-13T17:24:19.192Z,7.00
2024-02-13T17:26:45.624Z,3.75
2024-02-13T17:29:12.736Z,5.85
2024-02-13T17:31:39.255Z,7.20
2024-02-13T17:34:05.995Z,6.60
2024-02-13T17:36:32.763Z,5.65
2024-02-13T17:38:59.284Z,5.75
2024-02-13T17:41:28.932Z,6.50
2024-02-13T17:44:00.274Z,6.10
2024-02-13T17:46:27.511Z,7.97
2024-02-13T17:48:54.384Z,7.32
2024-02-13T17:51:20.962Z,9.85
2024-02-13T17:53:47.504Z,6.13
2024-02-13T17:56:13.978Z,6.38
2024-02-13T17:58:40.451Z,6.28
2024-02-13T18:01:07.081Z,5.60
2024-02-13T18:03:33.755Z,5.40
2024-02-13T18:06:02.722Z,8.98
2024-02-13T18:08:29.534Z,7.43
2024-02-13T18:10:56.145Z,10.48
2024-02-13T18:13:23.412Z,5.88
2024-02-13T18:15:50.883Z,9.18
2024-02-13T18:18:18.589Z,8.38
2024-02-13T18:23:14.012Z,7.25
2024-02-13T18:25:40.565Z,7.28
2024-02-13T18:28:07.312Z,8.70
2024-02-13T18:30:33.874Z,7.95
2024-02-13T18:33:00.489Z,9.30
2024-02-13T18:35:28.201Z,9.18
2024-02-13T18:37:54.794Z,9.02
2024-02-13T18:40:21.861Z,6.63
2024-02-13T18:42:48.471Z,13.00
2024-02-13T18:45:15.262Z,8.43
2024-02-13T18:47:45.645Z,8.35
2024-02-13T18:50:12.645Z,8.55
2024-02-13T18:52:39.256Z,6.13
2024-02-13T18:55:10.531Z,12.13
2024-02-13T18:57:41.620Z,8.15
2024-02-13T19:00:11.032Z,9.38
2024-02-13T19:02:37.779Z,9.02
2024-02-13T19:05:06.515Z,7.18
2024-02-13T19:07:33.044Z,6.40
2024-02-13T19:09:59.551Z,10.18
2024-02-13T19:12:26.061Z,6.93
2024-02-13T19:14:52.584Z,10.10
2024-02-13T19:17:20.817Z,10.55
2024-02-13T19:19:48.962Z,7.03
2024-02-13T19:22:15.440Z,6.80
2024-02-13T19:24:42.404Z,6.00
2024-02-13T19:27:11.130Z,11.32
2024-02-13T19:29:40.929Z,7.82
2024-02-13T19:32:07.503Z,9.82
2024-02-13T19:34:33.974Z,8.63
2024-02-13T19:37:01.266Z,8.27
2024-02-13T19:39:27.705Z,12.23
2024-02-13T19:41:54.443Z,11.88
2024-02-13T19:44:22.556Z,9.07
2024-02-13T19:46:48.978Z,15.07
2024-02-13T19:49:16.801Z,8.48
2024-02-13T19:54:11.468Z,9.20
2024-02-13T19:56:39.164Z,8.48
2024-02-13T19:59:06.360Z,7.25
2024-02-13T20:01:34.059Z,8.60
2024-02-13T20:06:30.496Z,8.63
2024-02-13T20:08:59.399Z,7.35
2024-02-13T20:11:26.755Z,8.63
2024-02-13T20:13:55.795Z,17.58
2024-02-13T20:16:26.283Z,10.38
2024-02-13T20:18:58.586Z,7.00
2024-02-13T20:21:32.754Z,6.88
2024-02-13T20:23:59.368Z,7.60
2024-02-13T20:26:26.077Z,7.03
2024-02-13T20:28:53.113Z,6.68
2024-02-13T20:31:20.393Z,7.57
2024-02-13T20:33:47.033Z,5.80
2024-02-13T20:36:13.560Z,7.45
2024-02-13T20:38:40.288Z,10.35
2024-02-13T20:41:08.974Z,7.63
2024-02-13T20:43:36.332Z,6.38
2024-02-13T20:46:03.556Z,9.80
2024-02-13T20:48:31.246Z,9.02
2024-02-13T20:53:24.491Z,7.38
2024-02-13T20:55:54.168Z,7.65
2024-02-13T20:58:20.727Z,7.60
2024-02-13T21:00:50.267Z,7.70
2024-02-13T21:03:20.801Z,9.27
2024-02-13T21:05:47.552Z,10.32
2024-02-13T21:08:14.871Z,7.43
2024-02-13T21:10:41.269Z,10.68
2024-02-13T21:13:07.685Z,8.75
2024-02-13T21:15:35.385Z,8.23
2024-02-13T21:18:02.471Z,11.55
2024-02-13T21:20:31.210Z,8.32
2024-02-13T21:23:16.178Z,8.23
2024-02-13T21:25:45.474Z,9.25
2024-02-13T21:28:11.866Z,10.45
2024-02-13T21:30:38.346Z,9.30
2024-02-13T21:33:05.367Z,8.02
2024-02-13T21:35:32.131Z,8.95
2024-02-13T21:37:58.663Z,8.80
2024-02-13T21:40:26.521Z,7.28
2024-02-13T21:42:53.189Z,8.90
2024-02-13T21:45:20.883Z,9.13
2024-02-13T21:47:47.563Z,7.93
2024-02-13T21:50:14.284Z,10.00
2024-02-13T21:52:41.787Z,9.35
2024-02-13T21:55:08.628Z,9.75
2024-02-13T21:57:35.064Z,11.70
2024-02-13T22:00:07.863Z,6.28
2024-02-13T22:02:34.786Z,9.27
2024-02-13T22:05:01.744Z,6.97
2024-02-13T22:07:28.256Z,7.15
2024-02-13T22:09:57.249Z,8.43
2024-02-13T22:12:23.808Z,9.35
2024-02-13T22:14:50.502Z,7.57
2024-02-13T22:17:17.001Z,6.40
2024-02-13T22:19:43.497Z,11.55
2024-02-13T22:22:12.444Z,9.82
2024-02-13T22:24:39.569Z,9.43
2024-02-13T22:27:06.738Z,9.63
2024-02-13T22:29:33.989Z,9.40
2024-02-13T22:32:00.536Z,7.18
2024-02-13T22:34:27.182Z,6.88
2024-02-13T22:36:53.815Z,8.05
2024-02-13T22:39:20.255Z,10.55
2024-02-13T22:41:46.754Z,7.82
2024-02-13T22:44:13.228Z,12.90
2024-02-13T22:46:39.775Z,5.65
2024-02-13T22:49:07.349Z,8.52
2024-02-13T22:51:33.946Z,6.95
2024-02-13T22:54:00.537Z,9.02
2024-02-13T22:56:27.145Z,6.85
2024-02-13T22:58:56.326Z,10.68
2024-02-13T23:01:24.927Z,9.40
2024-02-13T23:03:51.675Z,5.32
2024-02-13T23:06:18.255Z,9.32
2024-02-13T23:08:45.185Z,8.02
2024-02-13T23:11:11.916Z,7.05
2024-02-13T23:13:42.900Z,5.95
2024-02-13T23:16:12.615Z,5.65
2024-02-13T23:18:41.473Z,6.82
2024-02-13T23:21:08.346Z,7.75
2024-02-13T23:23:35.216Z,9.70
2024-02-13T23:26:02.009Z,6.70
2024-02-13T23:28:35.632Z,9.60
2024-02-13T23:31:10.084Z,6.10
2024-02-13T23:33:36.625Z,5.90
2024-02-13T23:36:03.504Z,5.40
2024-02-13T23:38:30.023Z,11.50
2024-02-13T23:40:56.442Z,7.13
2024-02-13T23:43:23.062Z,7.97
2024-02-13T23:45:49.816Z,7.82
2024-02-13T23:48:22.897Z,9.77
2024-02-13T23:50:52.133Z,8.82
2024-02-13T23:53:18.660Z,8.50
2024-02-13T23:55:45.081Z,7.78
2024-02-13T23:58:11.974Z,7.65
